sensor_id;sensor_type;location;lat;lon;timestamp;temperature;humidity
38582;DHT22;24349;53.720;10.014;2022-11-22T00:02:19;-0.90;99.90
38582;DHT22;24349;53.720;10.014;2022-11-22T00:04:45;-1.00;99.90
38582;DHT22;24349;53.720;10.014;2022-11-22T00:07:10;-1.00;99.90
38582;DHT22;24349;53.720;10.014;2022-11-22T00:09:36;-1.00;99.90
38582;DHT22;24349;53.720;10.014;2022-11-22T00:12:02;-1.00;99.90
38582;DHT22;24349;53.720;10.014;2022-11-22T00:14:27;-1.00;99.90
38582;DHT22;24349;53.720;10.014;2022-11-22T00:16:53;-1.00;99.90
38582;DHT22;24349;53.720;10.014;2022-11-22T00:19:19;-1.00;99.90
38582;DHT22;24349;53.720;10.014;2022-11-22T00:21:44;-1.00;99.90
38582;DHT22;24349;53.720;10.014;2022-11-22T00:24:13;-1.00;99.90
38582;DHT22;24349;53.720;10.014;2022-11-22T00:26:39;-1.00;99.90
38582;DHT22;24349;53.720;10.014;2022-11-22T00:29:05;-1.00;99.90
38582;DHT22;24349;53.720;10.014;2022-11-22T00:31:32;-1.00;99.90
38582;DHT22;24349;53.720;10.014;2022-11-22T00:33:57;-1.00;99.90
38582;DHT22;24349;53.720;10.014;2022-11-22T00:36:23;-0.90;99.90
38582;DHT22;24349;53.720;10.014;2022-11-22T00:38:49;-0.90;99.90
38582;DHT22;24349;53.720;10.014;2022-11-22T00:41:15;-0.90;99.90
38582;DHT22;24349;53.720;10.014;2022-11-22T00:43:40;-1.00;99.90
38582;DHT22;24349;53.720;10.014;2022-11-22T00:46:06;-0.90;99.90
38582;DHT22;24349;53.720;10.014;2022-11-22T00:48:32;-0.90;99.90
38582;DHT22;24349;53.720;10.014;2022-11-22T00:50:58;-0.90;99.90
38582;DHT22;24349;53.720;10.014;2022-11-22T00:53:23;-0.90;99.90
38582;DHT22;24349;53.720;10.014;2022-11-22T00:55:49;-0.90;99.90
38582;DHT22;24349;53.720;10.014;2022-11-22T00:58:15;-1.00;99.90
38582;DHT22;24349;53.720;10.014;2022-11-22T01:00:40;-0.90;99.90
38582;DHT22;24349;53.720;10.014;2022-11-22T01:03:09;-0.90;99.90
38582;DHT22;24349;53.720;10.014;2022-11-22T01:05:35;-0.90;99.90
38582;DHT22;24349;53.720;10.014;2022-11-22T01:08:00;-0.90;99.90
38582;DHT22;24349;53.720;10.014;2022-11-22T01:10:26;-0.90;99.90
38582;DHT22;24349;53.720;10.014;2022-11-22T01:12:52;-0.90;99.90
38582;DHT22;24349;53.720;10.014;2022-11-22T01:15:17;-0.90;99.90
38582;DHT22;24349;53.720;10.014;2022-11-22T01:17:43;-0.80;99.90
38582;DHT22;24349;53.720;10.014;2022-11-22T01:20:09;-0.80;99.90
38582;DHT22;24349;53.720;10.014;2022-11-22T01:22:35;-0.90;99.90
38582;DHT22;24349;53.720;10.014;2022-11-22T01:25:01;-0.80;99.90
38582;DHT22;24349;53.720;10.014;2022-11-22T01:27:26;-0.80;99.90
38582;DHT22;24349;53.720;10.014;2022-11-22T01:29:52;-0.70;99.90
38582;DHT22;24349;53.720;10.014;2022-11-22T01:32:18;-0.80;99.90
38582;DHT22;24349;53.720;10.014;2022-11-22T01:34:43;-0.70;99.90
38582;DHT22;24349;53.720;10.014;2022-11-22T01:37:09;-0.80;99.90
38582;DHT22;24349;53.720;10.014;2022-11-22T01:39:34;-0.80;99.90
38582;DHT22;24349;53.720;10.014;2022-11-22T01:42:00;-0.80;99.90
38582;DHT22;24349;53.720;10.014;2022-11-22T01:44:30;-0.70;99.90
38582;DHT22;24349;53.720;10.014;2022-11-22T01:47:20;-0.70;99.90
38582;DHT22;24349;53.720;10.014;2022-11-22T01:49:54;-0.70;99.90
38582;DHT22;24349;53.720;10.014;2022-11-22T01:52:23;-0.80;99.90
38582;DHT22;24349;53.720;10.014;2022-11-22T01:54:54;-0.70;99.90
38582;DHT22;24349;53.720;10.014;2022-11-22T01:57:24;-0.70;99.90
38582;DHT22;24349;53.720;10.014;2022-11-22T01:59:56;-0.70;99.90
38582;DHT22;24349;53.720;10.014;2022-11-22T02:02:24;-0.70;99.90
38582;DHT22;24349;53.720;10.014;2022-11-22T02:04:51;-0.70;99.90
38582;DHT22;24349;53.720;10.014;2022-11-22T02:07:22;-0.80;99.90
38582;DHT22;24349;53.720;10.014;2022-11-22T02:09:51;-0.70;99.90
38582;DHT22;24349;53.720;10.014;2022-11-22T02:12:19;-0.70;99.90
38582;DHT22;24349;53.720;10.014;2022-11-22T02:14:46;-0.70;99.90
38582;DHT22;24349;53.720;10.014;2022-11-22T02:17:12;-0.70;99.90
38582;DHT22;24349;53.720;10.014;2022-11-22T02:22:15;-0.70;99.90
38582;DHT22;24349;53.720;10.014;2022-11-22T02:27:51;-0.60;99.90
38582;DHT22;24349;53.720;10.014;2022-11-22T02:30:17;-0.70;99.90
38582;DHT22;24349;53.720;10.014;2022-11-22T02:32:43;-0.70;99.90
38582;DHT22;24349;53.720;10.014;2022-11-22T02:35:21;-0.70;99.90
38582;DHT22;24349;53.720;10.014;2022-11-22T02:37:51;-0.60;99.90
38582;DHT22;24349;53.720;10.014;2022-11-22T02:40:18;-0.60;99.90
38582;DHT22;24349;53.720;10.014;2022-11-22T02:42:50;-0.60;99.90
38582;DHT22;24349;53.720;10.014;2022-11-22T02:45:17;-0.60;99.90
38582;DHT22;24349;53.720;10.014;2022-11-22T02:47:43;-0.60;99.90
38582;DHT22;24349;53.720;10.014;2022-11-22T02:50:08;-0.60;99.90
38582;DHT22;24349;53.720;10.014;2022-11-22T02:52:34;-0.70;99.90
38582;DHT22;24349;53.720;10.014;2022-11-22T02:55:00;-0.50;99.90
38582;DHT22;24349;53.720;10.014;2022-11-22T02:57:26;-0.60;99.90
38582;DHT22;24349;53.720;10.014;2022-11-22T02:59:51;-0.60;99.90
38582;DHT22;24349;53.720;10.014;2022-11-22T03:02:17;-0.60;99.90
38582;DHT22;24349;53.720;10.014;2022-11-22T03:04:43;-0.60;99.90
38582;DHT22;24349;53.720;10.014;2022-11-22T03:07:08;-0.60;99.90
38582;DHT22;24349;53.720;10.014;2022-11-22T03:09:34;-0.60;99.90
38582;DHT22;24349;53.720;10.014;2022-11-22T03:12:00;-0.60;99.90
38582;DHT22;24349;53.720;10.014;2022-11-22T03:14:26;-0.60;99.90
38582;DHT22;24349;53.720;10.014;2022-11-22T03:16:52;-0.60;99.90
38582;DHT22;24349;53.720;10.014;2022-11-22T03:19:18;-0.60;99.90
38582;DHT22;24349;53.720;10.014;2022-11-22T03:21:44;-0.70;99.90
38582;DHT22;24349;53.720;10.014;2022-11-22T03:24:10;-0.60;99.90
38582;DHT22;24349;53.720;10.014;2022-11-22T03:26:36;-0.50;99.90
38582;DHT22;24349;53.720;10.014;2022-11-22T03:29:02;-0.60;99.90
38582;DHT22;24349;53.720;10.014;2022-11-22T03:31:28;-0.60;99.90
38582;DHT22;24349;53.720;10.014;2022-11-22T03:33:54;-0.60;99.90
38582;DHT22;24349;53.720;10.014;2022-11-22T03:36:21;-0.60;99.90
38582;DHT22;24349;53.720;10.014;2022-11-22T03:38:48;-0.50;99.90
38582;DHT22;24349;53.720;10.014;2022-11-22T03:41:15;-0.60;99.90
38582;DHT22;24349;53.720;10.014;2022-11-22T03:43:40;-0.50;99.90
38582;DHT22;24349;53.720;10.014;2022-11-22T03:46:11;-0.50;99.90
38582;DHT22;24349;53.720;10.014;2022-11-22T03:48:37;-0.50;99.90
38582;DHT22;24349;53.720;10.014;2022-11-22T03:51:06;-0.30;99.90
38582;DHT22;24349;53.720;10.014;2022-11-22T03:53:32;-0.50;99.90
38582;DHT22;24349;53.720;10.014;2022-11-22T03:55:59;-0.50;99.90
38582;DHT22;24349;53.720;10.014;2022-11-22T03:58:24;-0.40;99.90
38582;DHT22;24349;53.720;10.014;2022-11-22T04:00:50;-0.50;99.90
38582;DHT22;24349;53.720;10.014;2022-11-22T04:03:16;-0.40;99.90
38582;DHT22;24349;53.720;10.014;2022-11-22T04:05:43;-0.50;99.90
38582;DHT22;24349;53.720;10.014;2022-11-22T04:08:09;-0.50;99.90
38582;DHT22;24349;53.720;10.014;2022-11-22T04:10:35;-0.40;99.90
38582;DHT22;24349;53.720;10.014;2022-11-22T04:13:01;-0.40;99.90
38582;DHT22;24349;53.720;10.014;2022-11-22T04:15:27;-0.30;99.90
38582;DHT22;24349;53.720;10.014;2022-11-22T04:17:53;-0.30;99.90
38582;DHT22;24349;53.720;10.014;2022-11-22T04:20:30;-0.40;99.90
38582;DHT22;24349;53.720;10.014;2022-11-22T04:23:19;-0.40;99.90
38582;DHT22;24349;53.720;10.014;2022-11-22T04:25:48;-0.40;99.90
38582;DHT22;24349;53.720;10.014;2022-11-22T04:28:16;-0.40;99.90
38582;DHT22;24349;53.720;10.014;2022-11-22T04:30:42;-0.30;99.90
38582;DHT22;24349;53.720;10.014;2022-11-22T04:33:27;-0.30;99.90
38582;DHT22;24349;53.720;10.014;2022-11-22T04:35:53;-0.30;99.90
38582;DHT22;24349;53.720;10.014;2022-11-22T04:38:19;-0.30;99.90
38582;DHT22;24349;53.720;10.014;2022-11-22T04:40:45;-0.30;99.90
38582;DHT22;24349;53.720;10.014;2022-11-22T04:43:24;-0.20;99.90
38582;DHT22;24349;53.720;10.014;2022-11-22T04:46:10;-0.20;99.90
38582;DHT22;24349;53.720;10.014;2022-11-22T04:48:37;-0.20;99.90
38582;DHT22;24349;53.720;10.014;2022-11-22T04:51:04;-0.20;99.90
38582;DHT22;24349;53.720;10.014;2022-11-22T04:53:48;-0.20;99.90
38582;DHT22;24349;53.720;10.014;2022-11-22T04:56:14;-0.20;99.90
38582;DHT22;24349;53.720;10.014;2022-11-22T04:58:40;0.00;99.90
38582;DHT22;24349;53.720;10.014;2022-11-22T05:01:06;-0.10;99.90
38582;DHT22;24349;53.720;10.014;2022-11-22T05:03:33;-0.10;99.90
38582;DHT22;24349;53.720;10.014;2022-11-22T05:06:04;-0.10;99.90
38582;DHT22;24349;53.720;10.014;2022-11-22T05:08:30;-0.10;99.90
38582;DHT22;24349;53.720;10.014;2022-11-22T05:10:56;0.00;99.90
38582;DHT22;24349;53.720;10.014;2022-11-22T05:13:42;0.00;99.90
38582;DHT22;24349;53.720;10.014;2022-11-22T05:16:13;-0.10;99.90
38582;DHT22;24349;53.720;10.014;2022-11-22T05:18:39;0.10;99.90
38582;DHT22;24349;53.720;10.014;2022-11-22T05:21:12;0.10;99.90
38582;DHT22;24349;53.720;10.014;2022-11-22T05:23:38;0.00;99.90
38582;DHT22;24349;53.720;10.014;2022-11-22T05:26:21;0.10;99.90
38582;DHT22;24349;53.720;10.014;2022-11-22T05:28:47;0.10;99.90
38582;DHT22;24349;53.720;10.014;2022-11-22T05:31:16;0.10;99.90
38582;DHT22;24349;53.720;10.014;2022-11-22T05:33:44;0.10;99.90
38582;DHT22;24349;53.720;10.014;2022-11-22T05:36:12;0.10;99.90
38582;DHT22;24349;53.720;10.014;2022-11-22T05:38:38;0.20;99.90
38582;DHT22;24349;53.720;10.014;2022-11-22T05:41:06;0.10;99.90
38582;DHT22;24349;53.720;10.014;2022-11-22T05:43:32;0.20;99.90
38582;DHT22;24349;53.720;10.014;2022-11-22T05:48:30;0.20;99.90
38582;DHT22;24349;53.720;10.014;2022-11-22T05:50:56;0.20;99.90
38582;DHT22;24349;53.720;10.014;2022-11-22T05:53:22;0.30;99.90
38582;DHT22;24349;53.720;10.014;2022-11-22T05:55:48;0.30;99.90
38582;DHT22;24349;53.720;10.014;2022-11-22T05:58:16;0.30;99.90
38582;DHT22;24349;53.720;10.014;2022-11-22T06:00:46;0.30;99.90
38582;DHT22;24349;53.720;10.014;2022-11-22T06:03:12;0.30;99.90
38582;DHT22;24349;53.720;10.014;2022-11-22T06:05:38;0.30;99.90
38582;DHT22;24349;53.720;10.014;2022-11-22T06:08:06;0.40;99.90
38582;DHT22;24349;53.720;10.014;2022-11-22T06:10:34;0.30;99.90
38582;DHT22;24349;53.720;10.014;2022-11-22T06:13:01;0.40;99.90
38582;DHT22;24349;53.720;10.014;2022-11-22T06:15:30;0.50;99.90
38582;DHT22;24349;53.720;10.014;2022-11-22T06:17:57;0.50;99.90
38582;DHT22;24349;53.720;10.014;2022-11-22T06:28:19;0.50;99.90
38582;DHT22;24349;53.720;10.014;2022-11-22T06:44:50;0.60;99.90
38582;DHT22;24349;53.720;10.014;2022-11-22T06:48:07;0.60;99.90
38582;DHT22;24349;53.720;10.014;2022-11-22T06:51:11;0.70;99.90
38582;DHT22;24349;53.720;10.014;2022-11-22T06:54:24;0.70;99.90
38582;DHT22;24349;53.720;10.014;2022-11-22T06:56:50;0.80;99.90
38582;DHT22;24349;53.720;10.014;2022-11-22T06:59:52;0.60;99.90
38582;DHT22;24349;53.720;10.014;2022-11-22T07:02:44;0.70;99.90
38582;DHT22;24349;53.720;10.014;2022-11-22T07:05:14;0.70;99.90
38582;DHT22;24349;53.720;10.014;2022-11-22T07:08:41;0.80;99.90
38582;DHT22;24349;53.720;10.014;2022-11-22T07:22:18;0.80;99.90
38582;DHT22;24349;53.720;10.014;2022-11-22T07:25:06;0.80;99.90
38582;DHT22;24349;53.720;10.014;2022-11-22T07:34:42;0.80;99.90
38582;DHT22;24349;53.720;10.014;2022-11-22T07:37:31;0.90;99.90
38582;DHT22;24349;53.720;10.014;2022-11-22T07:40:15;0.80;99.90
38582;DHT22;24349;53.720;10.014;2022-11-22T07:56:16;0.80;99.90
38582;DHT22;24349;53.720;10.014;2022-11-22T07:59:09;0.80;99.90
38582;DHT22;24349;53.720;10.014;2022-11-22T08:02:23;0.80;99.90
38582;DHT22;24349;53.720;10.014;2022-11-22T08:05:04;0.80;99.90
38582;DHT22;24349;53.720;10.014;2022-11-22T08:08:14;0.90;99.90
38582;DHT22;24349;53.720;10.014;2022-11-22T08:11:20;0.90;99.90
38582;DHT22;24349;53.720;10.014;2022-11-22T08:50:06;1.00;99.90
38582;DHT22;24349;53.720;10.014;2022-11-22T08:52:41;1.00;99.90
38582;DHT22;24349;53.720;10.014;2022-11-22T08:55:07;1.10;99.90
38582;DHT22;24349;53.720;10.014;2022-11-22T08:57:34;1.00;99.90
38582;DHT22;24349;53.720;10.014;2022-11-22T09:00:03;1.00;99.90
38582;DHT22;24349;53.720;10.014;2022-11-22T09:07:39;1.10;99.90
38582;DHT22;24349;53.720;10.014;2022-11-22T09:23:02;1.10;99.90
38582;DHT22;24349;53.720;10.014;2022-11-22T09:26:46;1.10;99.90
38582;DHT22;24349;53.720;10.014;2022-11-22T09:29:55;1.20;99.90
38582;DHT22;24349;53.720;10.014;2022-11-22T09:33:41;1.10;99.90
38582;DHT22;24349;53.720;10.014;2022-11-22T09:36:54;1.20;99.90
38582;DHT22;24349;53.720;10.014;2022-11-22T09:50:17;1.20;99.90
38582;DHT22;24349;53.720;10.014;2022-11-22T09:53:42;1.20;99.90
38582;DHT22;24349;53.720;10.014;2022-11-22T09:57:01;1.20;99.90
38582;DHT22;24349;53.720;10.014;2022-11-22T09:59:34;1.20;99.90
38582;DHT22;24349;53.720;10.014;2022-11-22T10:02:38;1.30;99.90
38582;DHT22;24349;53.720;10.014;2022-11-22T10:06:04;1.30;99.90
38582;DHT22;24349;53.720;10.014;2022-11-22T10:11:38;1.30;99.90
38582;DHT22;24349;53.720;10.014;2022-11-22T10:21:19;1.30;99.90
38582;DHT22;24349;53.720;10.014;2022-11-22T10:30:41;1.30;99.90
38582;DHT22;24349;53.720;10.014;2022-11-22T10:33:45;1.30;99.90
38582;DHT22;24349;53.720;10.014;2022-11-22T10:43:27;1.30;99.90
38582;DHT22;24349;53.720;10.014;2022-11-22T11:06:49;1.50;99.90
38582;DHT22;24349;53.720;10.014;2022-11-22T11:46:56;1.80;99.90
38582;DHT22;24349;53.720;10.014;2022-11-22T11:49:29;1.70;99.90
38582;DHT22;24349;53.720;10.014;2022-11-22T11:51:56;1.80;99.90
38582;DHT22;24349;53.720;10.014;2022-11-22T11:54:50;1.80;99.90
38582;DHT22;24349;53.720;10.014;2022-11-22T11:57:30;1.80;99.90
38582;DHT22;24349;53.720;10.014;2022-11-22T12:00:04;1.90;99.90
38582;DHT22;24349;53.720;10.014;2022-11-22T12:02:39;1.90;99.90
38582;DHT22;24349;53.720;10.014;2022-11-22T12:07:45;1.90;99.90
38582;DHT22;24349;53.720;10.014;2022-11-22T12:13:22;1.80;99.90
38582;DHT22;24349;53.720;10.014;2022-11-22T12:18:29;2.00;99.90
38582;DHT22;24349;53.720;10.014;2022-11-22T12:26:16;2.00;99.90
38582;DHT22;24349;53.720;10.014;2022-11-22T12:28:42;2.00;99.90
38582;DHT22;24349;53.720;10.014;2022-11-22T12:33:41;2.00;99.90
38582;DHT22;24349;53.720;10.014;2022-11-22T12:36:21;2.10;99.90
38582;DHT22;24349;53.720;10.014;2022-11-22T12:38:50;2.10;99.90
38582;DHT22;24349;53.720;10.014;2022-11-22T12:41:20;2.10;99.90
38582;DHT22;24349;53.720;10.014;2022-11-22T12:44:01;2.10;99.90
38582;DHT22;24349;53.720;10.014;2022-11-22T12:46:45;2.20;99.90
38582;DHT22;24349;53.720;10.014;2022-11-22T12:51:49;2.10;99.90
38582;DHT22;24349;53.720;10.014;2022-11-22T13:01:02;2.10;99.90
38582;DHT22;24349;53.720;10.014;2022-11-22T13:20:36;2.40;99.90
38582;DHT22;24349;53.720;10.014;2022-11-22T13:26:04;2.40;99.90
38582;DHT22;24349;53.720;10.014;2022-11-22T13:28:37;2.40;99.90
38582;DHT22;24349;53.720;10.014;2022-11-22T13:31:12;2.40;99.90
38582;DHT22;24349;53.720;10.014;2022-11-22T13:34:01;2.40;99.90
38582;DHT22;24349;53.720;10.014;2022-11-22T13:38:54;2.40;99.90
38582;DHT22;24349;53.720;10.014;2022-11-22T13:41:36;2.40;99.90
38582;DHT22;24349;53.720;10.014;2022-11-22T13:46:56;2.40;99.90
38582;DHT22;24349;53.720;10.014;2022-11-22T13:49:40;2.40;99.90
38582;DHT22;24349;53.720;10.014;2022-11-22T13:57:38;2.40;99.90
38582;DHT22;24349;53.720;10.014;2022-11-22T14:02:45;2.40;99.90
38582;DHT22;24349;53.720;10.014;2022-11-22T14:05:24;2.50;99.90
38582;DHT22;24349;53.720;10.014;2022-11-22T14:07:58;2.50;99.90
38582;DHT22;24349;53.720;10.014;2022-11-22T14:13:11;2.40;99.90
38582;DHT22;24349;53.720;10.014;2022-11-22T14:18:51;2.30;99.90
38582;DHT22;24349;53.720;10.014;2022-11-22T14:32:25;2.50;99.90
38582;DHT22;24349;53.720;10.014;2022-11-22T14:45:39;2.20;99.90
38582;DHT22;24349;53.720;10.014;2022-11-22T14:48:20;2.20;99.90
38582;DHT22;24349;53.720;10.014;2022-11-22T14:53:31;2.20;99.90
38582;DHT22;24349;53.720;10.014;2022-11-22T14:56:34;2.20;99.90
38582;DHT22;24349;53.720;10.014;2022-11-22T14:59:04;2.20;99.90
38582;DHT22;24349;53.720;10.014;2022-11-22T15:01:59;2.20;99.90
38582;DHT22;24349;53.720;10.014;2022-11-22T15:07:09;2.10;99.90
38582;DHT22;24349;53.720;10.014;2022-11-22T15:17:54;2.10;99.90
38582;DHT22;24349;53.720;10.014;2022-11-22T15:20:37;2.10;99.90
38582;DHT22;24349;53.720;10.014;2022-11-22T15:23:20;2.00;99.90
38582;DHT22;24349;53.720;10.014;2022-11-22T15:25:48;2.10;99.90
38582;DHT22;24349;53.720;10.014;2022-11-22T15:28:17;2.10;99.90
38582;DHT22;24349;53.720;10.014;2022-11-22T15:30:44;2.10;99.90
38582;DHT22;24349;53.720;10.014;2022-11-22T15:36:12;2.00;99.90
38582;DHT22;24349;53.720;10.014;2022-11-22T15:38:41;2.00;99.90
38582;DHT22;24349;53.720;10.014;2022-11-22T15:41:20;1.90;99.90
38582;DHT22;24349;53.720;10.014;2022-11-22T15:43:47;2.00;99.90
38582;DHT22;24349;53.720;10.014;2022-11-22T15:46:14;2.00;99.90
38582;DHT22;24349;53.720;10.014;2022-11-22T15:48:45;2.00;99.90
38582;DHT22;24349;53.720;10.014;2022-11-22T15:53:57;2.10;99.90
38582;DHT22;24349;53.720;10.014;2022-11-22T15:56:40;2.00;99.90
38582;DHT22;24349;53.720;10.014;2022-11-22T16:01:43;1.90;99.90
38582;DHT22;24349;53.720;10.014;2022-11-22T16:04:22;2.00;99.90
38582;DHT22;24349;53.720;10.014;2022-11-22T16:06:50;1.90;99.90
38582;DHT22;24349;53.720;10.014;2022-11-22T16:09:29;1.90;99.90
38582;DHT22;24349;53.720;10.014;2022-11-22T16:11:57;1.90;99.90
38582;DHT22;24349;53.720;10.014;2022-11-22T16:17:30;2.00;99.90
38582;DHT22;24349;53.720;10.014;2022-11-22T16:20:25;1.90;99.90
38582;DHT22;24349;53.720;10.014;2022-11-22T16:23:14;2.00;99.90
38582;DHT22;24349;53.720;10.014;2022-11-22T16:26:24;1.90;99.90
38582;DHT22;24349;53.720;10.014;2022-11-22T16:29:08;1.90;99.90
38582;DHT22;24349;53.720;10.014;2022-11-22T16:31:35;2.00;99.90
38582;DHT22;24349;53.720;10.014;2022-11-22T16:34:07;2.00;99.90
38582;DHT22;24349;53.720;10.014;2022-11-22T16:36:35;1.90;99.90
38582;DHT22;24349;53.720;10.014;2022-11-22T16:39:01;1.90;99.90
38582;DHT22;24349;53.720;10.014;2022-11-22T16:41:28;2.00;99.90
38582;DHT22;24349;53.720;10.014;2022-11-22T16:43:57;1.90;99.90
38582;DHT22;24349;53.720;10.014;2022-11-22T16:46:25;2.10;99.90
38582;DHT22;24349;53.720;10.014;2022-11-22T16:49:21;1.80;99.90
38582;DHT22;24349;53.720;10.014;2022-11-22T16:52:35;1.90;99.90
38582;DHT22;24349;53.720;10.014;2022-11-22T16:55:25;1.80;99.90
38582;DHT22;24349;53.720;10.014;2022-11-22T16:58:20;1.80;99.90
38582;DHT22;24349;53.720;10.014;2022-11-22T17:00:52;1.80;99.90
38582;DHT22;24349;53.720;10.014;2022-11-22T17:03:22;1.90;99.90
38582;DHT22;24349;53.720;10.014;2022-11-22T17:05:49;1.80;99.90
38582;DHT22;24349;53.720;10.014;2022-11-22T17:08:19;1.90;99.90
38582;DHT22;24349;53.720;10.014;2022-11-22T17:10:57;1.80;99.90
38582;DHT22;24349;53.720;10.014;2022-11-22T17:13:52;1.70;99.90
38582;DHT22;24349;53.720;10.014;2022-11-22T17:16:30;1.80;99.90
38582;DHT22;24349;53.720;10.014;2022-11-22T17:18:56;1.70;99.90
38582;DHT22;24349;53.720;10.014;2022-11-22T17:24:46;1.80;99.90
38582;DHT22;24349;53.720;10.014;2022-11-22T17:30:19;1.90;99.90
38582;DHT22;24349;53.720;10.014;2022-11-22T17:32:48;1.70;99.90
38582;DHT22;24349;53.720;10.014;2022-11-22T17:35:17;1.80;99.90
38582;DHT22;24349;53.720;10.014;2022-11-22T17:37:42;1.80;99.90
38582;DHT22;24349;53.720;10.014;2022-11-22T17:40:09;1.90;99.90
38582;DHT22;24349;53.720;10.014;2022-11-22T17:42:40;1.90;99.90
38582;DHT22;24349;53.720;10.014;2022-11-22T17:45:18;1.80;99.90
38582;DHT22;24349;53.720;10.014;2022-11-22T17:47:44;1.90;99.90
38582;DHT22;24349;53.720;10.014;2022-11-22T17:50:10;1.80;99.90
38582;DHT22;24349;53.720;10.014;2022-11-22T17:52:36;1.80;99.90
38582;DHT22;24349;53.720;10.014;2022-11-22T17:55:02;1.80;99.90
38582;DHT22;24349;53.720;10.014;2022-11-22T17:57:52;1.80;99.90
38582;DHT22;24349;53.720;10.014;2022-11-22T18:04:29;1.90;99.90
38582;DHT22;24349;53.720;10.014;2022-11-22T18:07:26;1.90;99.90
38582;DHT22;24349;53.720;10.014;2022-11-22T18:09:55;2.00;99.90
38582;DHT22;24349;53.720;10.014;2022-11-22T18:12:20;1.90;99.90
38582;DHT22;24349;53.720;10.014;2022-11-22T18:14:46;1.90;99.90
38582;DHT22;24349;53.720;10.014;2022-11-22T18:17:32;1.90;99.90
38582;DHT22;24349;53.720;10.014;2022-11-22T18:20:20;1.90;99.90
38582;DHT22;24349;53.720;10.014;2022-11-22T18:23:13;1.90;99.90
38582;DHT22;24349;53.720;10.014;2022-11-22T18:29:07;1.80;99.90
38582;DHT22;24349;53.720;10.014;2022-11-22T18:31:33;1.70;99.90
38582;DHT22;24349;53.720;10.014;2022-11-22T18:34:26;1.70;99.90
38582;DHT22;24349;53.720;10.014;2022-11-22T18:41:02;1.60;99.90
38582;DHT22;24349;53.720;10.014;2022-11-22T18:43:35;1.50;99.90
38582;DHT22;24349;53.720;10.014;2022-11-22T18:46:32;1.50;99.90
38582;DHT22;24349;53.720;10.014;2022-11-22T18:49:27;1.40;99.90
38582;DHT22;24349;53.720;10.014;2022-11-22T18:56:15;1.40;99.90
38582;DHT22;24349;53.720;10.014;2022-11-22T19:02:57;1.30;99.90
38582;DHT22;24349;53.720;10.014;2022-11-22T19:06:53;1.40;99.90
38582;DHT22;24349;53.720;10.014;2022-11-22T19:10:27;1.40;99.90
38582;DHT22;24349;53.720;10.014;2022-11-22T19:14:03;1.30;99.90
38582;DHT22;24349;53.720;10.014;2022-11-22T19:16:58;1.30;99.90
38582;DHT22;24349;53.720;10.014;2022-11-22T19:23:10;1.30;99.90
38582;DHT22;24349;53.720;10.014;2022-11-22T19:26:25;1.30;99.90
38582;DHT22;24349;53.720;10.014;2022-11-22T19:30:08;1.30;99.90
38582;DHT22;24349;53.720;10.014;2022-11-22T19:43:25;1.30;99.90
38582;DHT22;24349;53.720;10.014;2022-11-22T19:45:59;1.30;99.90
38582;DHT22;24349;53.720;10.014;2022-11-22T19:49:02;1.20;99.90
38582;DHT22;24349;53.720;10.014;2022-11-22T19:52:07;1.20;99.90
38582;DHT22;24349;53.720;10.014;2022-11-22T19:54:50;1.10;99.90
38582;DHT22;24349;53.720;10.014;2022-11-22T19:57:41;1.10;99.90
38582;DHT22;24349;53.720;10.014;2022-11-22T20:03:32;1.10;99.90
38582;DHT22;24349;53.720;10.014;2022-11-22T20:05:59;1.00;99.90
38582;DHT22;24349;53.720;10.014;2022-11-22T20:08:25;0.90;99.90
38582;DHT22;24349;53.720;10.014;2022-11-22T20:11:12;1.00;99.90
38582;DHT22;24349;53.720;10.014;2022-11-22T20:24:27;0.80;99.90
38582;DHT22;24349;53.720;10.014;2022-11-22T20:27:01;0.90;99.90
38582;DHT22;24349;53.720;10.014;2022-11-22T20:29:30;0.90;99.90
38582;DHT22;24349;53.720;10.014;2022-11-22T20:32:03;0.90;99.90
38582;DHT22;24349;53.720;10.014;2022-11-22T20:35:43;0.90;99.90
38582;DHT22;24349;53.720;10.014;2022-11-22T20:38:54;0.90;99.90
38582;DHT22;24349;53.720;10.014;2022-11-22T20:41:27;0.90;99.90
38582;DHT22;24349;53.720;10.014;2022-11-22T20:44:21;0.90;99.90
38582;DHT22;24349;53.720;10.014;2022-11-22T20:47:38;0.80;99.90
38582;DHT22;24349;53.720;10.014;2022-11-22T20:50:28;0.80;99.90
38582;DHT22;24349;53.720;10.014;2022-11-22T20:52:53;0.80;99.90
38582;DHT22;24349;53.720;10.014;2022-11-22T20:55:19;0.80;99.90
38582;DHT22;24349;53.720;10.014;2022-11-22T20:57:45;0.80;99.90
38582;DHT22;24349;53.720;10.014;2022-11-22T21:00:11;0.80;99.90
38582;DHT22;24349;53.720;10.014;2022-11-22T21:03:34;0.80;99.90
38582;DHT22;24349;53.720;10.014;2022-11-22T21:10:31;0.80;99.90
38582;DHT22;24349;53.720;10.014;2022-11-22T21:13:39;0.80;99.90
38582;DHT22;24349;53.720;10.014;2022-11-22T21:16:34;0.90;99.90
38582;DHT22;24349;53.720;10.014;2022-11-22T21:23:11;0.90;99.90
38582;DHT22;24349;53.720;10.014;2022-11-22T21:25:42;0.90;99.90
38582;DHT22;24349;53.720;10.014;2022-11-22T21:28:36;0.90;99.90
38582;DHT22;24349;53.720;10.014;2022-11-22T21:31:31;1.00;99.90
38582;DHT22;24349;53.720;10.014;2022-11-22T21:34:29;1.00;99.90
38582;DHT22;24349;53.720;10.014;2022-11-22T21:37:37;1.00;99.90
38582;DHT22;24349;53.720;10.014;2022-11-22T21:40:11;1.00;99.90
38582;DHT22;24349;53.720;10.014;2022-11-22T21:42:42;1.00;99.90
38582;DHT22;24349;53.720;10.014;2022-11-22T21:45:34;1.00;99.90
38582;DHT22;24349;53.720;10.014;2022-11-22T21:47:59;1.10;99.90
38582;DHT22;24349;53.720;10.014;2022-11-22T21:50:25;1.00;99.90
38582;DHT22;24349;53.720;10.014;2022-11-22T21:52:51;1.00;99.90
38582;DHT22;24349;53.720;10.014;2022-11-22T21:55:16;1.00;99.90
38582;DHT22;24349;53.720;10.014;2022-11-22T21:57:42;0.90;99.90
38582;DHT22;24349;53.720;10.014;2022-11-22T22:00:08;0.90;99.90
38582;DHT22;24349;53.720;10.014;2022-11-22T22:02:34;1.00;99.90
38582;DHT22;24349;53.720;10.014;2022-11-22T22:05:00;0.90;99.90
38582;DHT22;24349;53.720;10.014;2022-11-22T22:07:25;0.90;99.90
38582;DHT22;24349;53.720;10.014;2022-11-22T22:09:51;0.90;99.90
38582;DHT22;24349;53.720;10.014;2022-11-22T22:12:16;0.90;99.90
38582;DHT22;24349;53.720;10.014;2022-11-22T22:14:42;0.90;99.90
38582;DHT22;24349;53.720;10.014;2022-11-22T22:17:08;0.90;99.90
38582;DHT22;24349;53.720;10.014;2022-11-22T22:19:33;0.90;99.90
38582;DHT22;24349;53.720;10.014;2022-11-22T22:22:01;1.10;99.90
38582;DHT22;24349;53.720;10.014;2022-11-22T22:24:26;1.00;99.90
38582;DHT22;24349;53.720;10.014;2022-11-22T22:26:52;1.00;99.90
38582;DHT22;24349;53.720;10.014;2022-11-22T22:29:18;1.00;99.90
38582;DHT22;24349;53.720;10.014;2022-11-22T22:31:49;1.00;99.90
38582;DHT22;24349;53.720;10.014;2022-11-22T22:34:28;1.10;99.90
38582;DHT22;24349;53.720;10.014;2022-11-22T22:37:33;1.10;99.90
38582;DHT22;24349;53.720;10.014;2022-11-22T22:40:06;1.10;99.90
38582;DHT22;24349;53.720;10.014;2022-11-22T22:42:33;1.20;99.90